createdAt,value
2022-11-19T00:01:22.760Z,3.25
2022-11-19T00:03:52.737Z,3.38
2022-11-19T00:06:25.886Z,3.83
2022-11-19T00:08:53.144Z,3.20
2022-11-19T00:11:41.213Z,3.60
2022-11-19T00:14:09.635Z,3.72
2022-11-19T00:16:36.383Z,3.88
2022-11-19T00:19:03.620Z,4.60
2022-11-19T00:21:31.380Z,4.97
2022-11-19T00:23:58.407Z,4.88
2022-11-19T00:26:25.585Z,4.57
2022-11-19T00:28:52.382Z,4.80
2022-11-19T00:31:19.685Z,5.15
2022-11-19T00:33:46.869Z,5.30
2022-11-19T00:36:15.201Z,5.55
2022-11-19T00:38:42.735Z,5.47
2022-11-19T00:41:09.862Z,5.30
2022-11-19T00:43:49.689Z,5.85
2022-11-19T00:46:16.518Z,6.20
2022-11-19T00:48:43.974Z,6.05
2022-11-19T00:51:11.471Z,6.05
2022-11-19T00:53:38.833Z,6.47
2022-11-19T00:56:09.003Z,7.07
2022-11-19T00:58:36.581Z,7.18
2022-11-19T01:01:04.091Z,6.88
2022-11-19T01:03:31.633Z,6.22
2022-11-19T01:05:58.684Z,6.22
2022-11-19T01:08:25.799Z,6.13
2022-11-19T01:10:52.553Z,6.55
2022-11-19T01:13:34.565Z,6.30
2022-11-19T01:16:11.113Z,5.78
2022-11-19T01:18:39.617Z,5.90
2022-11-19T01:21:07.665Z,5.85
2022-11-19T01:23:34.828Z,5.45
2022-11-19T01:26:02.204Z,5.40
2022-11-19T01:28:29.748Z,5.10
2022-11-19T01:30:56.679Z,5.80
2022-11-19T01:33:23.622Z,6.20
2022-11-19T01:36:01.206Z,6.60
2022-11-19T01:38:28.839Z,7.18
2022-11-19T01:40:56.451Z,6.57
2022-11-19T01:43:47.994Z,6.95
2022-11-19T01:46:17.471Z,7.38
2022-11-19T01:48:52.476Z,7.47
2022-11-19T01:51:28.576Z,8.52
2022-11-19T01:53:59.185Z,8.25
2022-11-19T01:56:27.804Z,9.27
2022-11-19T01:59:03.737Z,9.18
2022-11-19T02:01:32.783Z,10.30
2022-11-19T02:04:01.838Z,9.93
2022-11-19T02:06:29.780Z,11.23
2022-11-19T02:08:56.878Z,10.30
2022-11-19T02:11:40.986Z,11.43
2022-11-19T02:14:54.697Z,10.32
2022-11-19T02:17:45.975Z,10.48
2022-11-19T02:20:34.059Z,10.55
2022-11-19T02:23:25.340Z,10.10
2022-11-19T02:26:00.910Z,10.10
2022-11-19T02:29:02.376Z,10.48
2022-11-19T02:32:12.454Z,9.95
2022-11-19T02:34:53.597Z,9.68
2022-11-19T02:37:30.374Z,10.35
2022-11-19T02:40:04.905Z,10.10
2022-11-19T02:42:42.271Z,9.75
2022-11-19T02:45:19.119Z,10.57
2022-11-19T02:47:46.228Z,10.30
2022-11-19T02:50:20.786Z,10.57
2022-11-19T02:52:48.823Z,10.38
2022-11-19T02:55:20.718Z,9.88
2022-11-19T02:58:38.361Z,9.52
2022-11-19T03:01:26.028Z,10.35
2022-11-19T03:04:12.465Z,10.60
2022-11-19T03:06:40.212Z,11.38
2022-11-19T03:09:06.974Z,11.02
2022-11-19T03:11:33.728Z,11.88
2022-11-19T03:14:36.767Z,11.02
2022-11-19T03:17:29.161Z,12.75
2022-11-19T03:20:24.758Z,12.30
2022-11-19T03:22:53.970Z,12.93
2022-11-19T03:25:26.765Z,12.82
2022-11-19T03:27:59.251Z,12.63
2022-11-19T03:30:29.074Z,13.38
2022-11-19T03:33:00.494Z,13.85
2022-11-19T03:35:32.909Z,13.50
2022-11-19T03:38:04.137Z,13.40
2022-11-19T03:40:33.584Z,13.05
2022-11-19T03:43:05.062Z,14.13
2022-11-19T03:45:39.089Z,14.45
2022-11-19T03:48:07.014Z,13.93
2022-11-19T03:50:54.453Z,15.82
2022-11-19T03:53:22.244Z,14.60
2022-11-19T03:55:57.361Z,14.95
2022-11-19T03:58:25.621Z,14.75
2022-11-19T04:00:53.316Z,15.70
2022-11-19T04:03:20.124Z,14.75
2022-11-19T04:05:47.012Z,16.15
2022-11-19T04:08:13.821Z,17.75
2022-11-19T04:10:40.570Z,15.43
2022-11-19T04:13:07.278Z,16.23
2022-11-19T04:15:33.964Z,17.10
2022-11-19T04:18:00.702Z,16.25
2022-11-19T04:20:27.448Z,16.02
2022-11-19T04:22:54.152Z,16.85
2022-11-19T04:25:20.881Z,16.67
2022-11-19T04:27:47.901Z,15.35
2022-11-19T04:30:15.836Z,16.80
2022-11-19T04:32:43.200Z,16.92
2022-11-19T04:35:10.553Z,16.63
2022-11-19T04:37:37.240Z,17.08
2022-11-19T04:40:04.413Z,16.95
2022-11-19T04:42:31.244Z,17.85
2022-11-19T04:44:58.491Z,15.88
2022-11-19T04:47:25.234Z,17.35
2022-11-19T04:49:51.950Z,18.42
2022-11-19T04:52:18.651Z,17.83
2022-11-19T04:54:45.409Z,16.45
2022-11-19T04:57:12.096Z,16.20
2022-11-19T04:59:38.807Z,17.73
2022-11-19T05:02:05.579Z,17.08
2022-11-19T05:04:32.295Z,16.35
2022-11-19T05:06:59.029Z,16.33
2022-11-19T05:09:25.800Z,15.80
2022-11-19T05:11:52.513Z,16.20
2022-11-19T05:14:19.222Z,14.18
2022-11-19T05:16:45.936Z,15.32
2022-11-19T05:19:12.645Z,14.13
2022-11-19T05:21:39.366Z,16.55
2022-11-19T05:24:06.360Z,17.35
2022-11-19T05:26:33.161Z,15.43
2022-11-19T05:28:59.854Z,14.13
2022-11-19T05:31:26.611Z,14.10
2022-11-19T05:33:53.317Z,14.15
2022-11-19T05:36:20.035Z,13.25
2022-11-19T05:38:46.754Z,14.15
2022-11-19T05:41:13.500Z,14.65
2022-11-19T05:43:40.203Z,14.50
2022-11-19T05:46:06.936Z,14.10
2022-11-19T05:48:33.615Z,14.15
2022-11-19T05:51:00.386Z,15.63
2022-11-19T05:53:27.552Z,14.48
2022-11-19T05:55:54.269Z,15.00
2022-11-19T05:58:21.024Z,15.27
2022-11-19T06:00:48.124Z,13.95
2022-11-19T06:03:14.888Z,14.70
2022-11-19T06:05:41.930Z,14.73
2022-11-19T06:08:08.678Z,15.57
2022-11-19T06:10:35.421Z,14.73
2022-11-19T06:13:02.180Z,15.45
2022-11-19T06:15:29.121Z,15.82
2022-11-19T06:17:56.888Z,14.43
2022-11-19T06:20:23.565Z,16.27
2022-11-19T06:22:51.644Z,15.60
2022-11-19T06:25:18.566Z,16.45
2022-11-19T06:27:45.257Z,15.35
2022-11-19T06:30:12.977Z,17.38
2022-11-19T06:32:39.657Z,15.80
2022-11-19T06:35:06.896Z,17.33
2022-11-19T06:37:33.779Z,17.23
2022-11-19T06:40:00.545Z,17.73
2022-11-19T06:42:36.381Z,17.02
2022-11-19T06:45:12.387Z,15.98
2022-11-19T06:47:40.248Z,16.88
2022-11-19T06:50:09.341Z,17.40
2022-11-19T06:52:36.329Z,17.08
2022-11-19T06:55:03.154Z,16.10
2022-11-19T06:57:30.138Z,16.83
2022-11-19T06:59:56.939Z,15.93
2022-11-19T07:02:23.678Z,17.90
2022-11-19T07:04:50.368Z,16.20
2022-11-19T07:07:17.357Z,17.92
2022-11-19T07:09:44.131Z,17.45
2022-11-19T07:12:10.872Z,16.48
2022-11-19T07:14:37.718Z,16.55
2022-11-19T07:17:05.251Z,16.10
2022-11-19T07:19:32.148Z,15.98
2022-11-19T07:21:58.909Z,16.33
2022-11-19T07:24:25.606Z,16.08
2022-11-19T07:26:52.394Z,14.70
2022-11-19T07:29:19.486Z,16.40
2022-11-19T07:31:50.291Z,15.18
2022-11-19T07:34:17.925Z,15.23
2022-11-19T07:36:45.456Z,15.60
2022-11-19T07:39:12.598Z,15.13
2022-11-19T07:41:57.988Z,14.50
2022-11-19T07:44:24.710Z,16.73
2022-11-19T07:46:51.464Z,15.57
2022-11-19T07:49:19.164Z,23.25
2022-11-19T07:51:46.106Z,18.90
2022-11-19T07:54:12.958Z,18.00
2022-11-19T07:56:40.304Z,17.35
2022-11-19T07:59:07.200Z,16.33
2022-11-19T08:01:34.014Z,14.07
2022-11-19T08:04:00.782Z,14.18
2022-11-19T08:06:28.409Z,14.48
2022-11-19T08:08:56.294Z,14.27
2022-11-19T08:11:24.179Z,14.30
2022-11-19T08:13:51.782Z,13.25
2022-11-19T08:16:37.852Z,13.18
2022-11-19T08:19:09.981Z,13.45
2022-11-19T08:21:40.280Z,13.25
2022-11-19T08:24:07.813Z,13.95
2022-11-19T08:26:34.720Z,14.15
2022-11-19T08:29:01.602Z,20.50
2022-11-19T08:31:29.010Z,17.58
2022-11-19T08:33:55.849Z,15.02
2022-11-19T08:36:22.901Z,16.65
2022-11-19T08:38:49.646Z,14.68
2022-11-19T08:41:35.120Z,14.35
2022-11-19T08:44:02.771Z,14.13
2022-11-19T08:46:29.717Z,13.35
2022-11-19T08:48:56.451Z,14.23
2022-11-19T08:51:23.244Z,14.55
2022-11-19T08:53:54.535Z,14.30
2022-11-19T08:56:21.968Z,15.38
2022-11-19T08:58:48.988Z,14.68
2022-11-19T09:01:17.582Z,13.70
2022-11-19T09:03:44.770Z,13.65
2022-11-19T09:06:11.864Z,14.80
2022-11-19T09:08:39.144Z,14.93
2022-11-19T09:11:11.680Z,14.20
2022-11-19T09:13:39.104Z,14.75
2022-11-19T09:16:06.689Z,14.50
2022-11-19T09:18:33.997Z,14.40
2022-11-19T09:21:00.836Z,14.77
2022-11-19T09:23:27.742Z,14.65
2022-11-19T09:26:16.167Z,14.77
2022-11-19T09:28:43.355Z,14.00
2022-11-19T09:31:13.425Z,14.00
2022-11-19T09:33:42.227Z,14.43
2022-11-19T09:36:10.619Z,15.50
2022-11-19T09:38:37.530Z,14.63
2022-11-19T09:41:25.413Z,13.80
2022-11-19T09:44:15.131Z,18.77
2022-11-19T09:47:22.837Z,14.35
2022-11-19T09:50:10.472Z,17.52
2022-11-19T09:52:44.191Z,17.70
2022-11-19T09:55:22.583Z,14.55
2022-11-19T09:57:54.721Z,15.52
2022-11-19T10:00:23.838Z,14.93
2022-11-19T10:02:50.942Z,15.70
2022-11-19T10:05:28.763Z,16.05
2022-11-19T10:08:25.630Z,15.25
2022-11-19T10:11:29.791Z,15.95
2022-11-19T10:16:41.392Z,16.17
2022-11-19T10:19:26.372Z,15.65
2022-11-19T10:22:17.236Z,15.77
2022-11-19T10:24:54.923Z,15.52
2022-11-19T10:27:30.863Z,14.27
2022-11-19T10:30:12.329Z,16.75
2022-11-19T10:32:40.753Z,15.30
2022-11-19T10:35:21.185Z,15.38
2022-11-19T10:38:01.307Z,14.85
2022-11-19T10:40:42.881Z,14.15
2022-11-19T10:43:30.304Z,15.60
2022-11-19T10:45:59.756Z,15.13
2022-11-19T10:48:40.355Z,15.95
2022-11-19T10:51:22.781Z,13.50
2022-11-19T10:53:52.663Z,14.10
2022-11-19T10:56:22.867Z,14.23
2022-11-19T10:58:57.880Z,14.27
2022-11-19T11:01:39.552Z,13.85
2022-11-19T11:04:26.328Z,15.30
2022-11-19T11:06:56.257Z,14.43
2022-11-19T11:09:47.075Z,13.85
2022-11-19T11:12:58.948Z,13.77
2022-11-19T11:15:27.197Z,12.57
2022-11-19T11:18:03.226Z,14.02
2022-11-19T11:20:30.925Z,14.52
2022-11-19T11:23:15.028Z,13.40
2022-11-19T11:25:56.600Z,13.40
2022-11-19T11:28:24.145Z,14.85
2022-11-19T11:30:56.646Z,13.95
2022-11-19T11:33:34.702Z,13.45
2022-11-19T11:36:24.345Z,13.85
2022-11-19T11:38:53.454Z,13.98
2022-11-19T11:44:19.775Z,14.32
2022-11-19T11:47:10.312Z,14.77
2022-11-19T11:49:41.258Z,12.95
2022-11-19T11:52:19.189Z,15.27
2022-11-19T11:55:00.064Z,12.45
2022-11-19T11:57:28.724Z,13.15
2022-11-19T11:59:56.150Z,13.55
2022-11-19T12:02:32.520Z,13.68
2022-11-19T12:05:17.505Z,13.65
2022-11-19T12:08:04.787Z,14.82
2022-11-19T12:10:51.052Z,11.68
2022-11-19T12:13:36.004Z,12.68
2022-11-19T12:16:13.330Z,14.85
2022-11-19T12:19:25.036Z,14.27
2022-11-19T12:21:56.920Z,12.60
2022-11-19T12:24:44.825Z,11.88
2022-11-19T12:27:14.284Z,10.43
2022-11-19T12:29:55.998Z,10.77
2022-11-19T12:33:00.175Z,10.80
2022-11-19T12:38:24.489Z,10.48
2022-11-19T12:41:07.274Z,11.63
2022-11-19T12:44:02.011Z,12.75
2022-11-19T12:46:41.579Z,11.70
2022-11-19T12:49:42.551Z,10.40
2022-11-19T12:52:18.330Z,10.70
2022-11-19T12:55:04.317Z,11.65
2022-11-19T12:57:59.266Z,10.48
2022-11-19T13:00:28.880Z,10.88
2022-11-19T13:03:15.126Z,10.55
2022-11-19T13:05:50.134Z,11.02
2022-11-19T13:08:29.999Z,11.35
2022-11-19T13:11:17.282Z,10.70
2022-11-19T13:13:59.995Z,10.27
2022-11-19T13:16:30.634Z,11.17
2022-11-19T13:19:12.166Z,11.38
2022-11-19T13:21:57.365Z,12.57
2022-11-19T13:24:48.022Z,11.23
2022-11-19T13:27:22.942Z,11.95
2022-11-19T13:30:04.371Z,10.65
2022-11-19T13:33:26.450Z,11.13
2022-11-19T13:36:10.736Z,13.45
2022-11-19T13:38:49.460Z,12.30
2022-11-19T13:41:31.649Z,11.65
2022-11-19T13:44:17.881Z,11.23
2022-11-19T13:46:57.645Z,11.48
2022-11-19T13:49:32.314Z,12.82
2022-11-19T13:52:08.845Z,10.65
2022-11-19T13:54:40.952Z,10.95
2022-11-19T13:57:22.414Z,10.80
2022-11-19T13:59:50.332Z,10.68
2022-11-19T14:02:37.632Z,10.15
2022-11-19T14:05:16.321Z,10.45
2022-11-19T14:07:43.059Z,9.55
2022-11-19T14:10:38.044Z,10.38
2022-11-19T14:13:37.798Z,10.73
2022-11-19T14:16:41.515Z,11.10
2022-11-19T14:19:33.725Z,10.77
2022-11-19T14:22:20.384Z,10.85
2022-11-19T14:25:05.912Z,11.52
2022-11-19T14:27:34.023Z,9.77
2022-11-19T14:30:18.706Z,10.93
2022-11-19T14:32:50.191Z,10.90
2022-11-19T14:35:25.994Z,11.38
2022-11-19T14:38:24.312Z,11.18
2022-11-19T14:41:05.970Z,11.13
2022-11-19T14:44:08.111Z,12.07
2022-11-19T14:46:36.385Z,11.80
2022-11-19T14:49:06.610Z,10.88
2022-11-19T14:51:39.008Z,11.52
2022-11-19T14:54:15.093Z,12.25
2022-11-19T14:56:46.692Z,12.23
2022-11-19T14:59:16.445Z,13.13
2022-11-19T15:01:55.486Z,12.50
2022-11-19T15:04:25.575Z,12.05
2022-11-19T15:06:52.830Z,13.02
2022-11-19T15:09:51.454Z,11.80
2022-11-19T15:12:20.321Z,11.63
2022-11-19T15:15:05.640Z,12.30
2022-11-19T15:17:35.279Z,13.23
2022-11-19T15:20:23.686Z,11.73
2022-11-19T15:23:03.262Z,13.00
2022-11-19T15:26:14.574Z,11.85
2022-11-19T15:29:14.518Z,11.80
2022-11-19T15:32:05.494Z,13.90
2022-11-19T15:34:56.325Z,12.05
2022-11-19T15:37:49.395Z,12.95
2022-11-19T15:40:28.112Z,12.05
2022-11-19T15:43:15.326Z,12.43
2022-11-19T15:45:53.678Z,14.05
2022-11-19T15:48:33.646Z,12.48
2022-11-19T15:51:01.268Z,12.07
2022-11-19T15:53:28.266Z,12.98
2022-11-19T15:56:07.594Z,14.00
2022-11-19T15:58:44.903Z,14.27
2022-11-19T16:01:17.231Z,13.18
2022-11-19T16:03:45.500Z,12.23
2022-11-19T16:06:23.596Z,13.57
2022-11-19T16:08:55.444Z,13.80
2022-11-19T16:11:43.316Z,13.05
2022-11-19T16:14:46.180Z,11.95
2022-11-19T16:17:43.454Z,12.20
2022-11-19T16:20:11.017Z,12.93
2022-11-19T16:22:57.115Z,12.73
2022-11-19T16:25:35.936Z,13.65
2022-11-19T16:28:12.546Z,13.00
2022-11-19T16:30:51.470Z,12.77
2022-11-19T16:33:23.338Z,12.98
2022-11-19T16:35:53.550Z,12.65
2022-11-19T16:38:27.948Z,13.38
2022-11-19T16:41:15.052Z,12.95
2022-11-19T16:43:48.598Z,13.35
2022-11-19T16:46:19.415Z,14.20
2022-11-19T16:48:50.425Z,14.18
2022-11-19T16:51:31.960Z,13.13
2022-11-19T16:53:59.367Z,13.00
2022-11-19T16:56:31.900Z,13.02
2022-11-19T16:59:02.789Z,12.65
2022-11-19T17:01:30.183Z,13.18
2022-11-19T17:04:04.025Z,14.65
2022-11-19T17:06:34.721Z,13.90
2022-11-19T17:09:01.982Z,13.60
2022-11-19T17:12:06.326Z,13.95
2022-11-19T17:14:35.770Z,14.65
2022-11-19T17:17:03.513Z,14.00
2022-11-19T17:19:35.517Z,14.55
2022-11-19T17:22:23.383Z,13.80
2022-11-19T17:24:51.009Z,13.57
2022-11-19T17:27:28.952Z,14.43
2022-11-19T17:30:08.860Z,14.65
2022-11-19T17:32:45.539Z,13.77
2022-11-19T17:35:37.923Z,14.85
2022-11-19T17:38:12.153Z,14.00
2022-11-19T17:40:46.845Z,13.77
2022-11-19T17:43:34.475Z,14.65
2022-11-19T17:46:01.264Z,14.90
2022-11-19T17:48:29.177Z,14.55
2022-11-19T17:50:56.222Z,14.43
2022-11-19T17:53:23.526Z,14.18
2022-11-19T17:55:53.186Z,14.27
2022-11-19T17:58:19.958Z,13.25
2022-11-19T18:00:47.538Z,14.65
2022-11-19T18:03:15.316Z,14.18
2022-11-19T18:05:50.856Z,14.18
2022-11-19T18:08:17.721Z,13.10
2022-11-19T18:10:47.096Z,13.35
2022-11-19T18:13:19.460Z,14.25
2022-11-19T18:15:46.480Z,14.50
2022-11-19T18:18:13.182Z,14.43
2022-11-19T18:20:39.946Z,15.90
2022-11-19T18:23:06.700Z,14.30
2022-11-19T18:25:33.438Z,14.45
2022-11-19T18:28:00.262Z,15.13
2022-11-19T18:30:27.039Z,14.15
2022-11-19T18:32:53.753Z,13.43
2022-11-19T18:35:22.261Z,14.50
2022-11-19T18:37:49.344Z,14.30
2022-11-19T18:40:16.748Z,15.35
2022-11-19T18:43:03.635Z,15.50
2022-11-19T18:45:30.726Z,14.35
2022-11-19T18:47:57.518Z,15.15
2022-11-19T18:50:29.348Z,13.98
2022-11-19T18:52:56.868Z,14.18
2022-11-19T18:55:23.615Z,12.65
2022-11-19T18:57:50.317Z,14.00
2022-11-19T19:00:17.508Z,14.57
2022-11-19T19:02:44.216Z,14.15
2022-11-19T19:05:11.456Z,13.65
2022-11-19T19:07:38.253Z,13.68
2022-11-19T19:10:05.324Z,14.40
2022-11-19T19:12:32.119Z,14.30
2022-11-19T19:14:58.923Z,14.43
2022-11-19T19:17:26.227Z,13.32
2022-11-19T19:19:52.982Z,14.55
2022-11-19T19:22:20.555Z,13.88
2022-11-19T19:24:47.326Z,14.45
2022-11-19T19:27:15.042Z,13.60
2022-11-19T19:29:42.161Z,15.00
2022-11-19T19:32:09.044Z,16.67
2022-11-19T19:34:36.368Z,14.00
2022-11-19T19:37:04.284Z,13.70
2022-11-19T19:39:31.117Z,16.35
2022-11-19T19:41:57.921Z,14.90
2022-11-19T19:44:24.749Z,14.25
2022-11-19T19:46:51.521Z,14.93
2022-11-19T19:49:18.318Z,14.73
2022-11-19T19:51:45.141Z,14.07
2022-11-19T19:54:11.829Z,16.05
2022-11-19T19:56:39.887Z,14.90
2022-11-19T19:59:06.657Z,14.18
2022-11-19T20:01:35.107Z,15.00
2022-11-19T20:04:07.403Z,14.30
2022-11-19T20:06:36.621Z,15.33
2022-11-19T20:09:08.931Z,15.05
2022-11-19T20:11:48.472Z,13.90
2022-11-19T20:14:15.182Z,14.35
2022-11-19T20:16:42.057Z,15.05
2022-11-19T20:19:13.160Z,15.07
2022-11-19T20:21:40.443Z,14.70
2022-11-19T20:24:12.192Z,14.80
2022-11-19T20:26:40.742Z,16.13
2022-11-19T20:29:08.806Z,14.50
2022-11-19T20:31:35.771Z,14.55
2022-11-19T20:34:05.442Z,14.32
2022-11-19T20:36:35.190Z,14.07
2022-11-19T20:39:02.324Z,14.57
2022-11-19T20:41:48.417Z,13.88
2022-11-19T20:44:20.290Z,12.65
2022-11-19T20:46:55.751Z,13.18
2022-11-19T20:49:34.706Z,12.38
2022-11-19T20:52:03.445Z,14.38
2022-11-19T20:54:30.285Z,14.43
2022-11-19T20:56:57.702Z,14.90
2022-11-19T20:59:26.246Z,14.90
2022-11-19T21:01:54.616Z,13.98
2022-11-19T21:04:23.040Z,13.90
2022-11-19T21:06:50.896Z,13.82
2022-11-19T21:09:19.894Z,12.98
2022-11-19T21:11:47.537Z,13.52
2022-11-19T21:14:14.486Z,12.95
2022-11-19T21:16:41.762Z,13.95
2022-11-19T21:19:10.314Z,14.40
2022-11-19T21:21:37.784Z,14.32
2022-11-19T21:24:05.339Z,14.68
2022-11-19T21:26:32.030Z,15.10
2022-11-19T21:28:59.952Z,13.73
2022-11-19T21:31:38.465Z,14.75
2022-11-19T21:34:06.873Z,13.68
2022-11-19T21:36:33.752Z,13.85
2022-11-19T21:39:00.525Z,13.18
2022-11-19T21:41:27.346Z,13.60
2022-11-19T21:43:54.177Z,13.77
2022-11-19T21:46:20.919Z,14.40
2022-11-19T21:48:47.678Z,15.20
2022-11-19T21:51:14.379Z,15.75
2022-11-19T21:53:41.081Z,14.18
2022-11-19T21:56:08.056Z,15.23
2022-11-19T21:58:34.785Z,15.00
2022-11-19T22:01:04.375Z,13.77
2022-11-19T22:03:33.162Z,14.45
2022-11-19T22:06:06.664Z,14.88
2022-11-19T22:08:35.398Z,13.38
2022-11-19T22:11:20.941Z,15.40
2022-11-19T22:13:48.791Z,14.00
2022-11-19T22:16:15.515Z,14.63
2022-11-19T22:18:42.254Z,15.55
2022-11-19T22:21:09.265Z,15.57
2022-11-19T22:23:36.224Z,15.18
2022-11-19T22:26:07.442Z,15.23
2022-11-19T22:28:34.929Z,15.40
2022-11-19T22:31:01.807Z,14.68
2022-11-19T22:33:33.791Z,15.10
2022-11-19T22:36:08.167Z,16.27
2022-11-19T22:38:37.185Z,15.80
2022-11-19T22:41:12.501Z,15.13
2022-11-19T22:43:40.574Z,15.82
2022-11-19T22:46:09.274Z,15.18
2022-11-19T22:48:37.282Z,16.88
2022-11-19T22:51:09.581Z,16.27
2022-11-19T22:53:37.216Z,15.75
2022-11-19T22:56:06.185Z,17.65
2022-11-19T22:58:33.477Z,15.85
2022-11-19T23:01:00.443Z,15.93
2022-11-19T23:03:27.228Z,14.70
2022-11-19T23:05:55.909Z,16.15
2022-11-19T23:08:23.162Z,16.25
2022-11-19T23:11:06.156Z,16.55
2022-11-19T23:13:35.535Z,15.05
2022-11-19T23:16:07.397Z,15.57
2022-11-19T23:18:37.521Z,16.20
2022-11-19T23:21:06.927Z,17.25
2022-11-19T23:23:34.176Z,16.27
2022-11-19T23:26:02.782Z,16.40
2022-11-19T23:28:31.705Z,16.58
2022-11-19T23:31:03.667Z,16.83
2022-11-19T23:33:30.608Z,16.88
2022-11-19T23:36:05.073Z,16.30
2022-11-19T23:38:33.984Z,15.88
2022-11-19T23:41:01.561Z,15.73
2022-11-19T23:43:29.157Z,15.85
2022-11-19T23:46:03.110Z,17.58
2022-11-19T23:48:31.102Z,16.00
2022-11-19T23:51:07.240Z,16.65
2022-11-19T23:53:34.273Z,16.35
2022-11-19T23:56:02.304Z,18.02
2022-11-19T23:58:29.301Z,16.13
